createdAt,value
2022-12-11T00:00:29.167Z,-0.10
2022-12-11T00:02:56.786Z,-0.10
2022-12-11T00:05:24.219Z,-0.10
2022-12-11T00:07:51.357Z,-0.20
2022-12-11T00:10:18.209Z,-0.10
2022-12-11T00:12:45.198Z,-0.20
2022-12-11T00:15:13.773Z,-0.20
2022-12-11T00:17:42.811Z,-0.20
2022-12-11T00:20:10.011Z,-0.20
2022-12-11T00:22:40.944Z,-0.10
2022-12-11T00:25:27.353Z,-0.10
2022-12-11T00:27:54.217Z,-0.10
2022-12-11T00:30:20.969Z,-0.10
2022-12-11T00:32:47.830Z,-0.10
2022-12-11T00:35:15.757Z,-0.10
2022-12-11T00:37:42.571Z,-0.20
2022-12-11T00:40:09.705Z,-0.20
2022-12-11T00:42:36.687Z,-0.30
2022-12-11T00:45:04.660Z,-0.20
2022-12-11T00:47:31.400Z,-0.30
2022-12-11T00:49:58.234Z,-0.30
2022-12-11T00:52:25.019Z,-0.30
2022-12-11T00:54:52.002Z,-0.20
2022-12-11T00:57:20.271Z,-0.20
2022-12-11T00:59:47.527Z,-0.20
2022-12-11T01:02:14.625Z,-0.20
2022-12-11T01:04:41.830Z,-0.20
2022-12-11T01:07:08.848Z,-0.20
2022-12-11T01:09:54.495Z,-0.30
2022-12-11T01:12:21.449Z,-0.30
2022-12-11T01:14:48.169Z,-0.30
2022-12-11T01:17:14.988Z,-0.30
2022-12-11T01:19:41.760Z,-0.30
2022-12-11T01:22:08.518Z,-0.30
2022-12-11T01:24:35.444Z,-0.20
2022-12-11T01:27:04.881Z,-0.20
2022-12-11T01:29:32.236Z,-0.30
2022-12-11T01:31:59.025Z,-0.40
2022-12-11T01:34:25.811Z,-0.30
2022-12-11T01:36:52.586Z,-0.30
2022-12-11T01:39:19.362Z,-0.30
2022-12-11T01:41:46.433Z,-0.40
2022-12-11T01:44:16.474Z,-0.40
2022-12-11T01:46:43.203Z,-0.40
2022-12-11T01:49:12.448Z,-0.40
2022-12-11T01:51:41.155Z,-0.40
2022-12-11T01:54:11.466Z,-0.40
2022-12-11T01:56:39.888Z,-0.40
2022-12-11T01:59:08.416Z,-0.40
2022-12-11T02:01:44.661Z,-0.40
2022-12-11T02:04:17.569Z,-0.40
2022-12-11T02:06:45.643Z,-0.40
2022-12-11T02:09:18.969Z,-0.40
2022-12-11T02:11:48.005Z,-0.30
2022-12-11T02:14:23.586Z,-0.30
2022-12-11T02:17:04.649Z,-0.40
2022-12-11T02:19:43.536Z,-0.30
2022-12-11T02:22:13.194Z,-0.30
2022-12-11T02:24:43.104Z,-0.30
2022-12-11T02:27:09.889Z,-0.30
2022-12-11T02:29:56.663Z,-0.30
2022-12-11T02:32:30.428Z,-0.30
2022-12-11T02:35:05.580Z,-0.30
2022-12-11T02:37:33.123Z,-0.30
2022-12-11T02:40:01.910Z,-0.30
2022-12-11T02:42:30.373Z,-0.40
2022-12-11T02:45:00.731Z,-0.30
2022-12-11T02:47:29.529Z,-0.30
2022-12-11T02:49:58.851Z,-0.40
2022-12-11T02:52:26.964Z,-0.30
2022-12-11T02:54:56.682Z,-0.30
2022-12-11T02:57:25.858Z,-0.20
2022-12-11T02:59:52.634Z,-0.20
2022-12-11T03:02:19.496Z,-0.20
2022-12-11T03:04:47.562Z,-0.20
2022-12-11T03:07:26.188Z,-0.20
2022-12-11T03:09:53.084Z,-0.20
2022-12-11T03:12:27.859Z,-0.20
2022-12-11T03:14:55.038Z,-0.30
2022-12-11T03:17:42.367Z,-0.20
2022-12-11T03:20:15.276Z,-0.20
2022-12-11T03:22:53.316Z,-0.20
2022-12-11T03:25:23.083Z,-0.20
2022-12-11T03:27:56.001Z,-0.20
2022-12-11T03:30:24.946Z,-0.20
2022-12-11T03:32:56.859Z,-0.20
2022-12-11T03:35:29.820Z,-0.20
2022-12-11T03:37:58.334Z,-0.20
2022-12-11T03:40:27.898Z,-0.20
2022-12-11T03:42:56.488Z,-0.20
2022-12-11T03:45:25.460Z,-0.20
2022-12-11T03:47:53.447Z,-0.10
2022-12-11T03:50:21.898Z,-0.10
2022-12-11T03:52:49.056Z,-0.10
2022-12-11T03:55:17.157Z,-0.10
2022-12-11T03:57:44.333Z,-0.10
2022-12-11T04:00:13.817Z,-0.10
2022-12-11T04:02:41.228Z,-0.10
2022-12-11T04:05:08.865Z,-0.10
2022-12-11T04:07:37.031Z,-0.20
2022-12-11T04:10:04.937Z,-0.20
2022-12-11T04:12:31.751Z,-0.20
2022-12-11T04:15:04.642Z,-0.20
2022-12-11T04:17:54.272Z,-0.20
2022-12-11T04:20:40.171Z,-0.20
2022-12-11T04:23:29.592Z,-0.20
2022-12-11T04:26:04.016Z,-0.20
2022-12-11T04:28:30.791Z,-0.20
2022-12-11T04:30:57.681Z,-0.30
2022-12-11T04:33:24.576Z,-0.30
2022-12-11T04:35:51.437Z,-0.20
2022-12-11T04:38:18.235Z,-0.30
2022-12-11T04:40:45.000Z,-0.30
2022-12-11T04:43:11.810Z,-0.30
2022-12-11T04:45:38.593Z,-0.30
2022-12-11T04:48:07.379Z,-0.20
2022-12-11T04:50:34.259Z,-0.20
2022-12-11T04:53:01.143Z,-0.30
2022-12-11T04:55:31.046Z,-0.20
2022-12-11T04:57:57.881Z,-0.20
2022-12-11T05:00:24.691Z,-0.20
2022-12-11T05:02:51.584Z,-0.20
2022-12-11T05:05:18.447Z,-0.20
2022-12-11T05:07:45.595Z,-0.20
2022-12-11T05:10:12.504Z,-0.20
2022-12-11T05:12:39.257Z,-0.20
2022-12-11T05:15:06.331Z,-0.20
2022-12-11T05:17:33.627Z,-0.20
2022-12-11T05:20:00.360Z,-0.20
2022-12-11T05:22:27.104Z,-0.20
2022-12-11T05:24:53.921Z,-0.20
2022-12-11T05:27:20.956Z,-0.30
2022-12-11T05:29:47.801Z,-0.30
2022-12-11T05:32:14.562Z,-0.30
2022-12-11T05:34:41.766Z,-0.30
2022-12-11T05:37:08.511Z,-0.20
2022-12-11T05:39:35.230Z,-0.20
2022-12-11T05:42:02.051Z,-0.20
2022-12-11T05:44:28.817Z,-0.20
2022-12-11T05:46:55.633Z,-0.20
2022-12-11T05:49:27.322Z,-0.20
2022-12-11T05:51:57.321Z,-0.20
2022-12-11T05:54:24.141Z,-0.20
2022-12-11T05:56:53.997Z,-0.20
2022-12-11T05:59:21.001Z,-0.20
2022-12-11T06:01:47.923Z,-0.20
2022-12-11T06:04:14.940Z,-0.20
2022-12-11T06:06:43.708Z,-0.20
2022-12-11T06:09:14.456Z,-0.20
2022-12-11T06:11:42.792Z,-0.30
2022-12-11T06:14:11.401Z,-0.30
2022-12-11T06:16:39.341Z,-0.30
2022-12-11T06:19:06.280Z,-0.30
2022-12-11T06:21:33.555Z,-0.20
2022-12-11T06:24:02.470Z,-0.20
2022-12-11T06:26:30.336Z,-0.20
2022-12-11T06:28:58.184Z,-0.30
2022-12-11T06:31:27.310Z,-0.30
2022-12-11T06:33:54.414Z,-0.20
2022-12-11T06:36:22.380Z,-0.20
2022-12-11T06:38:49.421Z,-0.20
2022-12-11T06:41:19.316Z,-0.30
2022-12-11T06:43:46.742Z,-0.30
2022-12-11T06:46:19.136Z,-0.30
2022-12-11T06:48:47.551Z,-0.40
2022-12-11T06:51:16.741Z,-0.30
2022-12-11T06:53:45.549Z,-0.40
2022-12-11T06:56:17.555Z,-0.40
2022-12-11T06:58:50.526Z,-0.50
2022-12-11T07:01:18.909Z,-0.50
2022-12-11T07:03:45.961Z,-0.50
2022-12-11T07:06:13.200Z,-0.50
2022-12-11T07:08:40.391Z,-0.60
2022-12-11T07:11:08.514Z,-0.50
2022-12-11T07:13:36.713Z,-0.70
2022-12-11T07:16:04.726Z,-0.70
2022-12-11T07:18:32.641Z,-0.70
2022-12-11T07:21:02.585Z,-0.70
2022-12-11T07:23:29.398Z,-0.70
2022-12-11T07:25:56.322Z,-0.70
2022-12-11T07:28:28.015Z,-0.70
2022-12-11T07:30:55.440Z,-0.70
2022-12-11T07:33:22.889Z,-0.80
2022-12-11T07:35:50.815Z,-0.80
2022-12-11T07:38:17.695Z,-0.80
2022-12-11T07:40:44.566Z,-0.90
2022-12-11T07:43:11.377Z,-0.90
2022-12-11T07:45:38.442Z,-0.90
2022-12-11T07:48:05.498Z,-1.00
2022-12-11T07:50:38.053Z,-1.00
2022-12-11T07:53:08.608Z,-1.00
2022-12-11T07:55:35.418Z,-1.10
2022-12-11T07:58:02.280Z,-1.10
2022-12-11T08:00:30.233Z,-1.10
2022-12-11T08:02:56.951Z,-1.10
2022-12-11T08:05:23.694Z,-1.20
2022-12-11T08:07:50.729Z,-1.20
2022-12-11T08:10:17.655Z,-1.20
2022-12-11T08:12:44.390Z,-1.20
2022-12-11T08:15:11.598Z,-1.20
2022-12-11T08:17:40.131Z,-1.20
2022-12-11T08:20:08.329Z,-1.20
2022-12-11T08:22:35.116Z,-1.30
2022-12-11T08:25:03.047Z,-1.30
2022-12-11T08:27:29.947Z,-1.30
2022-12-11T08:29:59.051Z,-1.30
2022-12-11T08:32:25.846Z,-1.30
2022-12-11T08:34:52.742Z,-1.30
2022-12-11T08:37:21.700Z,-1.40
2022-12-11T08:39:48.639Z,-1.30
2022-12-11T08:42:15.395Z,-1.30
2022-12-11T08:44:42.291Z,-1.30
2022-12-11T08:47:12.248Z,-1.30
2022-12-11T08:49:39.014Z,-1.30
2022-12-11T08:52:05.876Z,-1.30
2022-12-11T08:54:32.882Z,-1.30
2022-12-11T08:57:00.333Z,-1.30
2022-12-11T08:59:27.240Z,-1.30
2022-12-11T09:01:56.230Z,-1.30
2022-12-11T09:04:25.213Z,-1.40
2022-12-11T09:06:52.006Z,-1.40
2022-12-11T09:09:18.872Z,-1.40
2022-12-11T09:12:08.174Z,-1.30
2022-12-11T09:14:33.441Z,-1.30
2022-12-11T09:17:00.338Z,-1.40
2022-12-11T09:19:32.022Z,-1.30
2022-12-11T09:21:59.402Z,-1.30
2022-12-11T09:24:27.368Z,-1.20
2022-12-11T09:26:54.580Z,-1.30
2022-12-11T09:29:21.461Z,-1.30
2022-12-11T09:31:49.534Z,-1.20
2022-12-11T09:34:16.369Z,-1.20
2022-12-11T09:36:44.279Z,-1.20
2022-12-11T09:39:12.598Z,-1.20
2022-12-11T09:41:44.665Z,-1.20
2022-12-11T09:44:29.938Z,-1.20
2022-12-11T09:46:57.532Z,-1.10
2022-12-11T09:49:33.650Z,-1.10
2022-12-11T09:52:01.494Z,-1.10
2022-12-11T09:54:28.395Z,-1.10
2022-12-11T09:57:15.771Z,-1.10
2022-12-11T10:00:04.261Z,-1.10
2022-12-11T10:02:38.257Z,-1.10
2022-12-11T10:05:11.495Z,-1.10
2022-12-11T10:07:43.781Z,-1.10
2022-12-11T10:10:13.768Z,-1.00
2022-12-11T10:12:49.829Z,-0.90
2022-12-11T10:15:35.785Z,-0.90
2022-12-11T10:18:05.303Z,-0.90
2022-12-11T10:20:36.567Z,-0.80
2022-12-11T10:23:05.558Z,-0.90
2022-12-11T10:26:04.320Z,-0.80
2022-12-11T10:28:31.218Z,-0.90
2022-12-11T10:30:58.111Z,-0.90
2022-12-11T10:33:34.694Z,-0.90
2022-12-11T10:36:01.448Z,-0.80
2022-12-11T10:38:32.485Z,-0.80
2022-12-11T10:41:01.639Z,-0.80
2022-12-11T10:43:42.581Z,-0.80
2022-12-11T10:46:15.944Z,-0.80
2022-12-11T10:49:01.901Z,-0.80
2022-12-11T10:51:31.786Z,-0.80
2022-12-11T10:54:07.347Z,-0.80
2022-12-11T10:56:35.804Z,-0.80
2022-12-11T10:59:02.783Z,-0.80
2022-12-11T11:01:31.903Z,-0.70
2022-12-11T11:04:01.434Z,-0.70
2022-12-11T11:06:28.298Z,-0.70
2022-12-11T11:08:56.683Z,-0.70
2022-12-11T11:11:33.924Z,-0.70
2022-12-11T11:14:12.203Z,-0.70
2022-12-11T11:17:04.054Z,-0.70
2022-12-11T11:19:55.871Z,-0.70
2022-12-11T11:22:22.794Z,-0.60
2022-12-11T11:25:19.604Z,-0.60
2022-12-11T11:27:58.588Z,-0.60
2022-12-11T11:30:27.352Z,-0.60
2022-12-11T11:32:55.292Z,-0.60
2022-12-11T11:35:26.704Z,-0.60
2022-12-11T11:37:56.877Z,-0.60
2022-12-11T11:40:28.184Z,-0.50
2022-12-11T11:43:16.278Z,-0.50
2022-12-11T11:45:55.435Z,-0.50
2022-12-11T11:48:28.568Z,-0.50
2022-12-11T11:50:57.277Z,-0.40
2022-12-11T11:53:28.829Z,-0.50
2022-12-11T11:56:30.418Z,-0.50
2022-12-11T11:59:02.386Z,-0.50
2022-12-11T12:01:29.581Z,-0.50
2022-12-11T12:03:56.783Z,-0.50
2022-12-11T12:06:31.583Z,-0.40
2022-12-11T12:09:17.300Z,-0.40
2022-12-11T12:11:49.984Z,-0.40
2022-12-11T12:14:50.636Z,-0.30
2022-12-11T12:17:06.996Z,-0.40
2022-12-11T12:19:54.132Z,-0.30
2022-12-11T12:22:28.085Z,-0.30
2022-12-11T12:25:04.172Z,-0.30
2022-12-11T12:27:52.750Z,-0.30
2022-12-11T12:30:22.810Z,-0.30
2022-12-11T12:33:02.669Z,-0.30
2022-12-11T12:35:44.640Z,-0.30
2022-12-11T12:38:11.845Z,-0.30
2022-12-11T12:41:01.649Z,-0.30
2022-12-11T12:43:37.246Z,-0.30
2022-12-11T12:46:16.508Z,-0.30
2022-12-11T12:48:45.085Z,-0.30
2022-12-11T12:51:16.237Z,-0.30
2022-12-11T12:53:47.093Z,-0.30
2022-12-11T12:56:14.975Z,-0.30
2022-12-11T12:58:43.181Z,-0.30
2022-12-11T13:01:19.641Z,-0.30
2022-12-11T13:03:55.401Z,-0.30
2022-12-11T13:06:51.671Z,-0.20
2022-12-11T13:09:23.806Z,-0.20
2022-12-11T13:11:54.685Z,-0.20
2022-12-11T13:14:28.520Z,-0.30
2022-12-11T13:17:22.707Z,-0.20
2022-12-11T13:19:52.331Z,-0.20
2022-12-11T13:22:23.859Z,-0.30
2022-12-11T13:25:01.925Z,-0.20
2022-12-11T13:27:32.224Z,-0.20
2022-12-11T13:30:08.367Z,-0.20
2022-12-11T13:32:43.686Z,-0.20
2022-12-11T13:35:18.585Z,-0.20
2022-12-11T13:37:52.161Z,-0.20
2022-12-11T13:40:21.230Z,-0.20
2022-12-11T13:43:25.160Z,-0.20
2022-12-11T13:45:57.292Z,-0.20
2022-12-11T13:48:27.532Z,-0.20
2022-12-11T13:50:55.036Z,-0.20
2022-12-11T13:53:22.411Z,-0.20
2022-12-11T13:56:01.830Z,-0.20
2022-12-11T13:58:29.551Z,-0.20
2022-12-11T14:01:02.462Z,-0.20
2022-12-11T14:03:31.339Z,-0.20
2022-12-11T14:05:58.686Z,-0.10
2022-12-11T14:08:28.566Z,-0.10
2022-12-11T14:10:55.676Z,-0.10
2022-12-11T14:13:25.403Z,-0.10
2022-12-11T14:15:52.697Z,-0.10
2022-12-11T14:18:31.546Z,-0.10
2022-12-11T14:21:02.920Z,-0.20
2022-12-11T14:23:31.827Z,-0.10
2022-12-11T14:26:24.929Z,-0.10
2022-12-11T14:28:52.562Z,-0.10
2022-12-11T14:31:26.718Z,-0.10
2022-12-11T14:34:04.972Z,-0.10
2022-12-11T14:36:33.166Z,-0.10
2022-12-11T14:39:10.673Z,-0.10
2022-12-11T14:41:43.252Z,-0.10
2022-12-11T14:44:14.495Z,-0.20
2022-12-11T14:46:48.603Z,-0.20
2022-12-11T14:49:15.491Z,-0.20
2022-12-11T14:51:42.598Z,-0.20
2022-12-11T14:54:20.097Z,-0.10
2022-12-11T14:56:48.301Z,-0.20
2022-12-11T14:59:27.007Z,-0.20
2022-12-11T15:02:02.917Z,-0.20
2022-12-11T15:04:31.452Z,-0.20
2022-12-11T15:06:58.932Z,-0.20
2022-12-11T15:09:36.241Z,-0.30
2022-12-11T15:12:11.358Z,-0.40
2022-12-11T15:14:48.987Z,-0.40
2022-12-11T15:17:16.122Z,-0.40
2022-12-11T15:19:47.707Z,-0.40
2022-12-11T15:22:16.085Z,-0.40
2022-12-11T15:24:43.784Z,-0.40
2022-12-11T15:27:20.908Z,-0.40
2022-12-11T15:29:47.592Z,-0.40
2022-12-11T15:32:14.334Z,-0.40
2022-12-11T15:34:51.959Z,-0.40
2022-12-11T15:37:23.298Z,-0.40
2022-12-11T15:39:50.216Z,-0.50
2022-12-11T15:42:23.046Z,-0.50
2022-12-11T15:44:50.333Z,-0.50
2022-12-11T15:47:22.394Z,-0.50
2022-12-11T15:49:49.521Z,-0.50
2022-12-11T15:52:17.365Z,-0.50
2022-12-11T15:54:44.111Z,-0.60
2022-12-11T15:57:14.146Z,-0.60
2022-12-11T15:59:40.965Z,-0.60
2022-12-11T16:02:13.063Z,-0.70
2022-12-11T16:04:40.312Z,-0.70
2022-12-11T16:07:14.819Z,-0.70
2022-12-11T16:09:41.635Z,-0.70
2022-12-11T16:12:08.573Z,-0.70
2022-12-11T16:14:38.180Z,-0.70
2022-12-11T16:17:08.163Z,-0.60
2022-12-11T16:19:35.283Z,-0.80
2022-12-11T16:22:03.513Z,-0.80
2022-12-11T16:24:30.367Z,-0.80
2022-12-11T16:26:57.202Z,-0.80
2022-12-11T16:29:24.060Z,-0.80
2022-12-11T16:31:50.831Z,-0.80
2022-12-11T16:34:17.876Z,-0.80
2022-12-11T16:36:44.659Z,-0.80
2022-12-11T16:39:12.262Z,-0.80
2022-12-11T16:41:39.144Z,-0.80
2022-12-11T16:44:06.673Z,-0.80
2022-12-11T16:46:33.599Z,-0.80
2022-12-11T16:49:00.446Z,-0.80
2022-12-11T16:51:28.247Z,-0.70
2022-12-11T16:53:55.085Z,-0.80
2022-12-11T16:56:21.831Z,-0.80
2022-12-11T16:58:49.266Z,-0.80
2022-12-11T17:01:16.287Z,-0.90
2022-12-11T17:03:45.402Z,-0.90
2022-12-11T17:06:14.376Z,-0.90
2022-12-11T17:08:42.733Z,-0.90
2022-12-11T17:11:11.458Z,-0.90
2022-12-11T17:13:38.897Z,-0.90
2022-12-11T17:16:10.097Z,-0.90
2022-12-11T17:18:37.341Z,-0.90
2022-12-11T17:21:08.905Z,-0.90
2022-12-11T17:23:36.218Z,-0.90
2022-12-11T17:26:03.368Z,-0.80
2022-12-11T17:28:30.693Z,-0.90
2022-12-11T17:30:57.538Z,-1.00
2022-12-11T17:33:25.439Z,-1.00
2022-12-11T17:35:52.337Z,-0.90
2022-12-11T17:38:19.146Z,-1.00
2022-12-11T17:40:46.161Z,-0.90
2022-12-11T17:43:14.198Z,-0.90
2022-12-11T17:45:41.990Z,-0.90
2022-12-11T17:48:08.850Z,-0.80
2022-12-11T17:50:39.147Z,-0.90
2022-12-11T17:53:06.322Z,-0.90
2022-12-11T17:55:33.732Z,-0.90
2022-12-11T17:58:00.626Z,-0.90
2022-12-11T18:00:32.970Z,-0.90
2022-12-11T18:03:00.127Z,-0.90
2022-12-11T18:05:27.597Z,-1.00
2022-12-11T18:07:57.850Z,-1.00
2022-12-11T18:10:25.285Z,-1.00
2022-12-11T18:12:53.220Z,-0.90
2022-12-11T18:15:20.174Z,-1.00
2022-12-11T18:17:47.262Z,-1.00
2022-12-11T18:20:16.932Z,-1.00
2022-12-11T18:22:43.947Z,-1.00
2022-12-11T18:25:11.845Z,-0.90
2022-12-11T18:27:39.175Z,-0.90
2022-12-11T18:30:06.256Z,-0.90
2022-12-11T18:32:33.776Z,-0.90
2022-12-11T18:35:04.553Z,-0.90
2022-12-11T18:37:35.516Z,-0.90
2022-12-11T18:40:03.555Z,-1.00
2022-12-11T18:42:33.186Z,-1.00
2022-12-11T18:45:00.565Z,-1.00
2022-12-11T18:47:27.343Z,-1.00
2022-12-11T18:49:54.171Z,-1.00
2022-12-11T18:52:20.915Z,-1.00
2022-12-11T18:54:47.958Z,-0.90
2022-12-11T18:57:17.455Z,-0.90
2022-12-11T18:59:45.725Z,-0.90
2022-12-11T19:02:16.113Z,-0.90
2022-12-11T19:04:43.012Z,-0.90
2022-12-11T19:07:10.671Z,-0.90
2022-12-11T19:09:38.799Z,-0.90
2022-12-11T19:12:06.679Z,-0.80
2022-12-11T19:14:34.022Z,-0.80
2022-12-11T19:17:00.982Z,-0.80
2022-12-11T19:19:28.225Z,-0.80
2022-12-11T19:21:55.541Z,-0.80
2022-12-11T19:24:23.332Z,-0.80
2022-12-11T19:26:50.768Z,-0.80
2022-12-11T19:29:19.667Z,-0.90
2022-12-11T19:31:48.274Z,-0.90
2022-12-11T19:34:15.533Z,-0.90
2022-12-11T19:36:43.375Z,-0.90
2022-12-11T19:39:13.312Z,-0.90
2022-12-11T19:41:41.145Z,-0.80
2022-12-11T19:44:08.557Z,-0.80
2022-12-11T19:46:36.065Z,-0.80
2022-12-11T19:49:04.427Z,-0.70
2022-12-11T19:51:36.571Z,-0.80
2022-12-11T19:54:03.504Z,-0.80
2022-12-11T19:56:33.461Z,-0.80
2022-12-11T19:59:06.466Z,-0.80
2022-12-11T20:01:35.360Z,-0.70
2022-12-11T20:04:04.095Z,-0.70
2022-12-11T20:06:31.777Z,-0.70
2022-12-11T20:08:59.994Z,-0.70
2022-12-11T20:11:27.156Z,-0.70
2022-12-11T20:13:59.205Z,-0.70
2022-12-11T20:16:46.245Z,-0.80
2022-12-11T20:19:17.238Z,-0.70
2022-12-11T20:21:49.675Z,-0.70
2022-12-11T20:24:29.648Z,-0.70
2022-12-11T20:26:59.305Z,-0.70
2022-12-11T20:29:29.811Z,-0.70
2022-12-11T20:31:59.559Z,-0.70
2022-12-11T20:34:28.010Z,-0.70
2022-12-11T20:36:55.669Z,-0.70
2022-12-11T20:39:26.527Z,-0.60
2022-12-11T20:42:04.744Z,-0.60
2022-12-11T20:44:33.949Z,-0.60
2022-12-11T20:47:01.939Z,-0.50
2022-12-11T20:49:28.921Z,-0.50
2022-12-11T20:51:56.086Z,-0.50
2022-12-11T20:54:29.508Z,-0.50
2022-12-11T20:57:00.714Z,-0.50
2022-12-11T20:59:42.911Z,-0.50
2022-12-11T21:02:30.660Z,-0.50
2022-12-11T21:05:07.265Z,-0.50
2022-12-11T21:07:58.236Z,-0.50
2022-12-11T21:10:48.901Z,-0.60
2022-12-11T21:13:20.120Z,-0.70
2022-12-11T21:15:49.046Z,-0.60
2022-12-11T21:18:16.103Z,-0.60
2022-12-11T21:20:46.073Z,-0.60
2022-12-11T21:23:14.259Z,-0.60
2022-12-11T21:25:41.369Z,-0.50
2022-12-11T21:28:08.331Z,-0.50
2022-12-11T21:30:40.204Z,-0.50
2022-12-11T21:33:08.256Z,-0.50
2022-12-11T21:35:35.320Z,-0.50
2022-12-11T21:38:06.390Z,-0.40
2022-12-11T21:40:38.008Z,-0.40
2022-12-11T21:43:05.128Z,-0.40
2022-12-11T21:46:00.478Z,-0.30
2022-12-11T21:48:23.762Z,-0.30
2022-12-11T21:50:51.598Z,-0.30
2022-12-11T21:53:23.816Z,-0.30
2022-12-11T21:55:52.967Z,-0.30
2022-12-11T21:58:21.802Z,-0.30
2022-12-11T22:00:48.767Z,-0.30
2022-12-11T22:03:16.888Z,-0.30
2022-12-11T22:05:47.176Z,-0.20
2022-12-11T22:08:20.321Z,-0.30
2022-12-11T22:10:47.436Z,-0.30
2022-12-11T22:13:14.440Z,-0.20
2022-12-11T22:15:48.211Z,-0.20
2022-12-11T22:18:15.572Z,-0.30
2022-12-11T22:20:43.728Z,-0.30
2022-12-11T22:23:11.671Z,-0.30
2022-12-11T22:25:38.718Z,-0.40
2022-12-11T22:28:05.827Z,-0.40
2022-12-11T22:30:33.740Z,-0.40
2022-12-11T22:33:00.697Z,-0.40
2022-12-11T22:35:27.760Z,-0.50
2022-12-11T22:37:56.912Z,-0.40
2022-12-11T22:40:28.208Z,-0.40
2022-12-11T22:43:00.239Z,-0.40
2022-12-11T22:45:27.188Z,-0.40
2022-12-11T22:47:54.074Z,-0.40
2022-12-11T22:50:20.887Z,-0.40
2022-12-11T22:52:49.006Z,-0.30
2022-12-11T22:55:17.623Z,-0.40
2022-12-11T22:57:44.440Z,-0.40
2022-12-11T23:00:12.582Z,-0.40
2022-12-11T23:02:40.608Z,-0.40
2022-12-11T23:05:11.326Z,-0.40
2022-12-11T23:07:38.502Z,-0.40
2022-12-11T23:10:08.996Z,-0.40
2022-12-11T23:12:40.002Z,-0.40
2022-12-11T23:15:17.605Z,-0.40
2022-12-11T23:17:44.619Z,-0.40
2022-12-11T23:20:14.752Z,-0.40
2022-12-11T23:22:41.722Z,-0.50
2022-12-11T23:25:12.503Z,-0.50
2022-12-11T23:27:58.899Z,-0.50
2022-12-11T23:30:25.882Z,-0.50
2022-12-11T23:32:52.850Z,-0.50
2022-12-11T23:35:19.741Z,-0.60
2022-12-11T23:37:56.138Z,-0.60
2022-12-11T23:40:23.259Z,-0.60
2022-12-11T23:42:57.440Z,-0.60
2022-12-11T23:45:24.504Z,-0.60
2022-12-11T23:47:51.994Z,-0.60
2022-12-11T23:50:20.893Z,-0.60
2022-12-11T23:52:47.977Z,-0.70
2022-12-11T23:55:16.043Z,-0.70
2022-12-11T23:57:43.069Z,-0.70
